Time;durP1;ratioP1;P1;durP2;ratioP2;P2;SDS_P1;SDS_P2;PMS_P1;PMS_P2;Temp;Humidity;BMP_temperature;BMP_pressure;BME280_temperature;BME280_humidity;BME280_pressure;Samples;Min_cycle;Max_cycle;Signal;HPM_P1;HPM_P2
2022/03/13 00:01:13;;;;;;;26.80;14.83;;;;;;;;;;5054875;28;20410;-63
2022/03/13 00:03:39;;;;;;;23.90;14.00;;;;;;;;;;5054339;28;20399;-72
2022/03/13 00:06:09;;;;;;;24.07;15.03;;;;;;;;;;5054546;28;20415;-75
2022/03/13 00:08:37;;;;;;;24.10;15.17;;;;;;;;;;5054455;28;20761;-75
2022/03/13 00:11:08;;;;;;;25.23;15.43;;;;;;;;;;5054151;28;20932;-75
2022/03/13 00:13:40;;;;;;;24.23;15.17;;;;;;;;;;5054480;28;20438;-75
2022/03/13 00:16:08;;;;;;;24.17;15.70;;;;;;;;;;5053077;28;20414;-74
2022/03/13 00:18:36;;;;;;;26.10;15.50;;;;;;;;;;5052881;28;20427;-73
2022/03/13 00:21:03;;;;;;;24.37;13.60;;;;;;;;;;5054131;28;20409;-75
2022/03/13 00:23:30;;;;;;;24.40;14.10;;;;;;;;;;5054071;28;20401;-75
2022/03/13 00:25:56;;;;;;;29.40;14.83;;;;;;;;;;5054018;28;20436;-72
2022/03/13 00:28:22;;;;;;;24.73;15.83;;;;;;;;;;5054038;28;20401;-74
2022/03/13 00:30:48;;;;;;;26.60;16.00;;;;;;;;;;5052592;28;20471;-73
2022/03/13 00:33:14;;;;;;;29.30;13.87;;;;;;;;;;5053884;28;20448;-68
2022/03/13 00:35:40;;;;;;;29.37;14.80;;;;;;;;;;5053959;28;20467;-62
2022/03/13 00:38:07;;;;;;;25.23;15.13;;;;;;;;;;5053796;28;20398;-62
2022/03/13 00:40:33;;;;;;;24.87;15.73;;;;;;;;;;5053805;28;20414;-62
2022/03/13 00:43:00;;;;;;;24.17;15.20;;;;;;;;;;5053784;28;20396;-68
2022/03/13 00:45:26;;;;;;;27.30;16.30;;;;;;;;;;5053785;28;20397;-68
2022/03/13 00:47:53;;;;;;;28.17;15.70;;;;;;;;;;5053675;28;20400;-65
2022/03/13 00:50:19;;;;;;;29.53;17.07;;;;;;;;;;5053416;28;20893;-62
2022/03/13 00:52:46;;;;;;;23.47;15.20;;;;;;;;;;5053533;28;20515;-63
2022/03/13 00:55:12;;;;;;;24.57;14.47;;;;;;;;;;5053454;28;20414;-62
2022/03/13 00:57:39;;;;;;;26.23;15.00;;;;;;;;;;5053470;28;20407;-63
2022/03/13 01:00:06;;;;;;;24.70;15.50;;;;;;;;;;5052304;28;20420;-62
2022/03/13 01:02:32;;;;;;;27.80;15.20;;;;;;;;;;5052216;28;20406;-62
2022/03/13 01:04:58;;;;;;;26.80;14.77;;;;;;;;;;5053226;28;20470;-63
2022/03/13 01:07:25;;;;;;;27.50;16.13;;;;;;;;;;5053322;28;20405;-62
2022/03/13 01:09:51;;;;;;;20.90;15.17;;;;;;;;;;5052798;28;20509;-62
2022/03/13 01:12:17;;;;;;;22.93;13.67;;;;;;;;;;5053411;28;20433;-63
2022/03/13 01:14:43;;;;;;;26.67;15.70;;;;;;;;;;5053206;28;20398;-62
2022/03/13 01:17:09;;;;;;;27.37;14.73;;;;;;;;;;5053163;28;20552;-62
2022/03/13 01:19:37;;;;;;;24.83;15.53;;;;;;;;;;5053153;28;20465;-62
2022/03/13 01:22:03;;;;;;;24.60;14.57;;;;;;;;;;5053046;28;20423;-74
2022/03/13 01:24:34;;;;;;;26.23;15.90;;;;;;;;;;5053103;28;20792;-74
2022/03/13 01:27:02;;;;;;;25.77;17.40;;;;;;;;;;5053024;28;20918;-75
2022/03/13 01:29:28;;;;;;;27.00;15.03;;;;;;;;;;5052867;28;20838;-72
2022/03/13 01:31:54;;;;;;;21.20;13.73;;;;;;;;;;5051906;28;20444;-71
2022/03/13 01:34:33;;;;;;;23.47;13.80;;;;;;;;;;5053053;28;20818;-74
2022/03/13 01:36:59;;;;;;;25.47;14.70;;;;;;;;;;5052952;28;20409;-71
2022/03/13 01:39:26;;;;;;;24.70;14.47;;;;;;;;;;5051846;28;20406;-75
2022/03/13 01:41:52;;;;;;;25.20;15.37;;;;;;;;;;5053069;28;20489;-70
2022/03/13 01:44:21;;;;;;;27.67;15.60;;;;;;;;;;5052875;28;20496;-73
2022/03/13 01:46:47;;;;;;;26.80;15.83;;;;;;;;;;5052836;28;20496;-64
2022/03/13 01:49:13;;;;;;;24.13;14.30;;;;;;;;;;5052701;28;20486;-63
2022/03/13 01:51:39;;;;;;;20.77;13.80;;;;;;;;;;5052873;28;20423;-62
2022/03/13 01:54:08;;;;;;;25.60;15.33;;;;;;;;;;5052755;28;20436;-63
2022/03/13 01:56:34;;;;;;;19.60;13.07;;;;;;;;;;5052770;28;20512;-63
2022/03/13 01:59:00;;;;;;;27.73;14.43;;;;;;;;;;5052791;28;20453;-66
2022/03/13 02:01:27;;;;;;;23.77;15.10;;;;;;;;;;5054182;28;20407;-62
2022/03/13 02:03:53;;;;;;;21.90;14.80;;;;;;;;;;5056634;28;20501;-64
2022/03/13 02:06:29;;;;;;;24.13;14.73;;;;;;;;;;5056861;28;20535;-75
2022/03/13 02:08:56;;;;;;;25.33;14.00;;;;;;;;;;5056480;28;20404;-75
2022/03/13 02:11:23;;;;;;;25.57;14.93;;;;;;;;;;5055224;28;20551;-76
2022/03/13 02:13:50;;;;;;;23.93;15.07;;;;;;;;;;5056587;28;20734;-75
2022/03/13 02:16:17;;;;;;;23.93;15.20;;;;;;;;;;5055255;28;20419;-71
2022/03/13 02:18:47;;;;;;;26.07;14.93;;;;;;;;;;5056328;28;20483;-75
2022/03/13 02:21:13;;;;;;;24.10;14.60;;;;;;;;;;5056520;28;20401;-75
2022/03/13 02:23:39;;;;;;;23.87;15.80;;;;;;;;;;5056474;28;20407;-76
2022/03/13 02:26:06;;;;;;;26.40;15.73;;;;;;;;;;5055210;28;20427;-75
2022/03/13 02:28:37;;;;;;;26.17;15.10;;;;;;;;;;5056139;28;20496;-73
2022/03/13 02:31:05;;;;;;;23.33;14.73;;;;;;;;;;5056159;28;20466;-74
2022/03/13 02:33:32;;;;;;;24.20;14.73;;;;;;;;;;5056138;28;20418;-74
2022/03/13 02:36:02;;;;;;;22.60;14.53;;;;;;;;;;5056421;28;20411;-75
2022/03/13 02:38:28;;;;;;;23.03;14.70;;;;;;;;;;5056141;28;20427;-73
2022/03/13 02:40:55;;;;;;;24.23;13.70;;;;;;;;;;5056086;28;20399;-75
2022/03/13 02:43:21;;;;;;;27.63;15.27;;;;;;;;;;5056114;28;20405;-74
2022/03/13 02:45:48;;;;;;;23.80;15.33;;;;;;;;;;5055969;28;20485;-73
2022/03/13 02:48:15;;;;;;;25.27;15.20;;;;;;;;;;5055917;28;20500;-69
2022/03/13 02:50:41;;;;;;;26.10;14.93;;;;;;;;;;5054444;28;20469;-65
2022/03/13 02:53:09;;;;;;;20.33;13.73;;;;;;;;;;5055949;28;20412;-61
2022/03/13 02:55:35;;;;;;;24.53;15.03;;;;;;;;;;5055723;28;20479;-64
2022/03/13 02:58:01;;;;;;;22.13;13.93;;;;;;;;;;5054476;28;20406;-65
2022/03/13 03:00:42;;;;;;;26.13;13.97;;;;;;;;;;5055795;28;20883;-65
2022/03/13 03:03:08;;;;;;;23.80;15.03;;;;;;;;;;5055714;28;20911;-63
2022/03/13 03:05:35;;;;;;;25.33;14.70;;;;;;;;;;5055640;28;20495;-72
2022/03/13 03:08:01;;;;;;;23.87;14.07;;;;;;;;;;5055642;28;20400;-75
2022/03/13 03:10:27;;;;;;;24.70;14.30;;;;;;;;;;5055504;28;20478;-76
2022/03/13 03:12:53;;;;;;;22.53;13.90;;;;;;;;;;5054351;28;20406;-75
2022/03/13 03:15:19;;;;;;;23.17;13.20;;;;;;;;;;5055417;28;20775;-74
2022/03/13 03:17:45;;;;;;;24.83;14.97;;;;;;;;;;5055434;28;20417;-73
2022/03/13 03:20:12;;;;;;;23.00;14.07;;;;;;;;;;5055422;28;20942;-75
2022/03/13 03:22:38;;;;;;;39.70;13.83;;;;;;;;;;5054087;28;20503;-75
2022/03/13 03:25:05;;;;;;;20.23;13.57;;;;;;;;;;5053942;28;20778;-75
2022/03/13 03:27:31;;;;;;;25.40;14.23;;;;;;;;;;5055260;28;20422;-75
2022/03/13 03:29:59;;;;;;;24.87;14.10;;;;;;;;;;5055130;28;20462;-75
2022/03/13 03:32:25;;;;;;;25.77;13.50;;;;;;;;;;5055146;28;20492;-75
2022/03/13 03:34:51;;;;;;;23.10;14.43;;;;;;;;;;5053887;28;20899;-76
2022/03/13 03:37:17;;;;;;;23.70;13.60;;;;;;;;;;5055121;28;20465;-74
2022/03/13 03:39:43;;;;;;;17.70;12.07;;;;;;;;;;5054976;28;20407;-76
2022/03/13 03:42:09;;;;;;;26.40;13.30;;;;;;;;;;5055093;28;20481;-76
2022/03/13 03:44:35;;;;;;;24.30;14.13;;;;;;;;;;5054933;28;20505;-75
2022/03/13 03:47:01;;;;;;;22.90;14.30;;;;;;;;;;5054909;28;20443;-74
2022/03/13 03:49:28;;;;;;;28.00;13.90;;;;;;;;;;5054492;28;20528;-62
2022/03/13 03:51:54;;;;;;;24.00;12.83;;;;;;;;;;5053509;28;20798;-73
2022/03/13 03:54:20;;;;;;;22.10;14.20;;;;;;;;;;5054626;28;20901;-62
2022/03/13 03:56:46;;;;;;;23.20;14.20;;;;;;;;;;5054849;28;20458;-67
2022/03/13 03:59:12;;;;;;;21.90;13.77;;;;;;;;;;5054590;28;20468;-63
2022/03/13 04:01:42;;;;;;;24.63;14.23;;;;;;;;;;5054630;28;20472;-66
2022/03/13 04:04:09;;;;;;;26.10;15.10;;;;;;;;;;5054296;28;20548;-75
2022/03/13 04:06:39;;;;;;;21.87;13.47;;;;;;;;;;5054524;28;20649;-74
2022/03/13 04:09:09;;;;;;;21.20;13.90;;;;;;;;;;5054442;28;20484;-74
2022/03/13 04:11:36;;;;;;;24.60;14.10;;;;;;;;;;5054378;28;20415;-73
2022/03/13 04:14:02;;;;;;;23.50;14.50;;;;;;;;;;5054379;28;20900;-75
2022/03/13 04:16:28;;;;;;;24.33;14.03;;;;;;;;;;5054305;28;20419;-74
2022/03/13 04:18:54;;;;;;;23.77;13.47;;;;;;;;;;5054157;28;20419;-74
2022/03/13 04:21:22;;;;;;;22.60;14.10;;;;;;;;;;5054248;28;20459;-74
2022/03/13 04:23:48;;;;;;;26.40;14.50;;;;;;;;;;5053938;28;20415;-74
2022/03/13 04:26:15;;;;;;;23.60;14.20;;;;;;;;;;5054224;28;20400;-75
2022/03/13 04:28:41;;;;;;;22.10;13.80;;;;;;;;;;5054175;28;20403;-75
2022/03/13 04:31:08;;;;;;;23.40;14.30;;;;;;;;;;5053995;28;20479;-75
2022/03/13 04:33:35;;;;;;;23.53;14.43;;;;;;;;;;5054150;28;20429;-75
2022/03/13 04:36:03;;;;;;;25.53;14.40;;;;;;;;;;5054023;28;20418;-75
2022/03/13 04:38:29;;;;;;;23.13;13.33;;;;;;;;;;5052570;28;20502;-70
2022/03/13 04:40:56;;;;;;;25.10;14.07;;;;;;;;;;5052584;28;20419;-76
2022/03/13 04:43:22;;;;;;;26.33;15.03;;;;;;;;;;5053660;28;20413;-74
2022/03/13 04:45:49;;;;;;;29.10;15.10;;;;;;;;;;5053872;28;20445;-74
2022/03/13 04:48:16;;;;;;;24.83;14.43;;;;;;;;;;5053475;28;20429;-66
2022/03/13 04:50:43;;;;;;;23.43;15.20;;;;;;;;;;5053364;28;20992;-62
2022/03/13 04:53:09;;;;;;;22.13;13.27;;;;;;;;;;5053673;28;20839;-63
2022/03/13 04:55:35;;;;;;;25.67;14.80;;;;;;;;;;5053665;28;20498;-63
2022/03/13 04:58:01;;;;;;;23.53;13.80;;;;;;;;;;5053511;28;20400;-65
2022/03/13 05:00:27;;;;;;;26.20;14.70;;;;;;;;;;5052240;28;20778;-65
2022/03/13 05:02:54;;;;;;;21.20;14.13;;;;;;;;;;5053399;28;20397;-62
2022/03/13 05:05:21;;;;;;;23.90;14.00;;;;;;;;;;5052001;28;20473;-62
2022/03/13 05:07:47;;;;;;;24.70;13.70;;;;;;;;;;5053298;28;20906;-62
2022/03/13 05:10:15;;;;;;;25.13;14.47;;;;;;;;;;5053116;28;20483;-63
2022/03/13 05:12:43;;;;;;;24.73;15.10;;;;;;;;;;5053206;28;20449;-69
2022/03/13 05:15:09;;;;;;;23.20;13.73;;;;;;;;;;5053242;28;20890;-72
2022/03/13 05:17:35;;;;;;;27.37;14.37;;;;;;;;;;5053174;28;20395;-67
2022/03/13 05:20:01;;;;;;;22.60;13.37;;;;;;;;;;5053164;28;20947;-71
2022/03/13 05:22:27;;;;;;;29.57;15.10;;;;;;;;;;5053144;28;20418;-69
2022/03/13 05:24:53;;;;;;;25.77;15.17;;;;;;;;;;5053116;28;20410;-75
2022/03/13 05:27:19;;;;;;;24.60;14.30;;;;;;;;;;5053119;28;20415;-74
2022/03/13 05:29:45;;;;;;;26.30;14.70;;;;;;;;;;5035182;28;20467;-76
2022/03/13 05:32:11;;;;;;;29.13;16.40;;;;;;;;;;5052975;28;20408;-73
2022/03/13 05:34:38;;;;;;;26.03;15.07;;;;;;;;;;5052560;28;20769;-73
2022/03/13 05:37:04;;;;;;;34.47;15.30;;;;;;;;;;5052736;28;20415;-72
2022/03/13 05:39:30;;;;;;;29.20;15.20;;;;;;;;;;5052948;28;20410;-72
2022/03/13 05:41:57;;;;;;;30.90;15.40;;;;;;;;;;5052941;28;20396;-75
2022/03/13 05:44:23;;;;;;;27.60;16.33;;;;;;;;;;5053061;28;20383;-75
2022/03/13 05:46:49;;;;;;;22.53;14.03;;;;;;;;;;5052899;28;20406;-75
2022/03/13 05:49:15;;;;;;;27.40;15.30;;;;;;;;;;5052610;28;20421;-62
2022/03/13 05:51:43;;;;;;;27.57;15.60;;;;;;;;;;5052939;28;20420;-64
2022/03/13 05:54:09;;;;;;;27.10;16.07;;;;;;;;;;5052929;28;20497;-62
2022/03/13 05:56:36;;;;;;;25.60;14.60;;;;;;;;;;5052779;28;20439;-62
2022/03/13 05:59:02;;;;;;;25.20;14.90;;;;;;;;;;5052868;28;20900;-63
2022/03/13 06:01:28;;;;;;;26.60;15.27;;;;;;;;;;5052686;28;20406;-62
2022/03/13 06:03:54;;;;;;;25.13;15.40;;;;;;;;;;5052728;28;20422;-76
2022/03/13 06:06:20;;;;;;;23.93;14.40;;;;;;;;;;5052756;28;20408;-75
2022/03/13 06:08:46;;;;;;;28.83;16.00;;;;;;;;;;5052573;28;20772;-72
2022/03/13 06:11:13;;;;;;;24.00;14.80;;;;;;;;;;5052530;28;20982;-75
2022/03/13 06:13:39;;;;;;;38.83;15.87;;;;;;;;;;5052705;28;20403;-74
2022/03/13 06:16:05;;;;;;;27.00;16.17;;;;;;;;;;5052743;28;20414;-73
2022/03/13 06:18:32;;;;;;;28.60;16.07;;;;;;;;;;5052518;28;20411;-64
2022/03/13 06:20:59;;;;;;;22.70;15.73;;;;;;;;;;5052582;28;20898;-69
2022/03/13 06:23:25;;;;;;;29.70;16.07;;;;;;;;;;5052582;28;20754;-65
2022/03/13 06:25:52;;;;;;;25.90;14.70;;;;;;;;;;5052549;28;20767;-68
2022/03/13 06:28:19;;;;;;;24.53;15.17;;;;;;;;;;5052479;28;20414;-64
2022/03/13 06:30:45;;;;;;;25.93;14.83;;;;;;;;;;5052242;28;20477;-64
2022/03/13 06:33:11;;;;;;;24.83;15.27;;;;;;;;;;5052501;28;20412;-62
2022/03/13 06:35:37;;;;;;;23.17;13.73;;;;;;;;;;5052601;28;20416;-64
2022/03/13 06:38:03;;;;;;;29.37;16.70;;;;;;;;;;5052362;28;20417;-63
2022/03/13 06:40:29;;;;;;;26.13;15.10;;;;;;;;;;5052468;28;20765;-62
2022/03/13 06:42:57;;;;;;;26.77;15.13;;;;;;;;;;5052520;28;20407;-63
2022/03/13 06:45:23;;;;;;;28.10;15.07;;;;;;;;;;5052461;28;20414;-62
2022/03/13 06:47:49;;;;;;;23.73;15.13;;;;;;;;;;5055231;28;20465;-62
2022/03/13 06:50:17;;;;;;;23.60;16.00;;;;;;;;;;5055934;28;20543;-64
2022/03/13 06:52:44;;;;;;;27.73;15.93;;;;;;;;;;5055979;28;20418;-62
2022/03/13 06:55:13;;;;;;;22.50;15.07;;;;;;;;;;5055932;28;20414;-74
2022/03/13 06:57:39;;;;;;;26.37;14.47;;;;;;;;;;5055693;28;20552;-70
2022/03/13 07:00:06;;;;;;;34.23;15.40;;;;;;;;;;5055832;28;20886;-63
2022/03/13 07:02:32;;;;;;;25.43;14.93;;;;;;;;;;5055713;28;20406;-74
2022/03/13 07:04:58;;;;;;;29.30;16.23;;;;;;;;;;5054411;28;20458;-70
2022/03/13 07:07:24;;;;;;;20.77;13.63;;;;;;;;;;5055528;28;20420;-67
2022/03/13 07:09:51;;;;;;;26.37;15.40;;;;;;;;;;5055460;28;20459;-72
2022/03/13 07:12:18;;;;;;;25.60;15.77;;;;;;;;;;5055546;28;21131;-68
2022/03/13 07:14:46;;;;;;;24.77;15.80;;;;;;;;;;5055452;28;20467;-74
2022/03/13 07:17:13;;;;;;;22.63;15.03;;;;;;;;;;5055364;28;20400;-68
2022/03/13 07:19:43;;;;;;;27.17;17.07;;;;;;;;;;5055251;28;20437;-62
2022/03/13 07:22:10;;;;;;;24.50;16.17;;;;;;;;;;5055501;28;20404;-65
2022/03/13 07:24:36;;;;;;;26.37;16.20;;;;;;;;;;5055273;28;20427;-64
2022/03/13 07:27:02;;;;;;;31.97;18.50;;;;;;;;;;5053786;28;20425;-66
2022/03/13 07:29:28;;;;;;;31.00;18.00;;;;;;;;;;5054977;28;20891;-68
2022/03/13 07:31:56;;;;;;;27.70;16.53;;;;;;;;;;5055219;28;20448;-71
2022/03/13 07:34:23;;;;;;;33.33;18.50;;;;;;;;;;5055218;28;20393;-74
2022/03/13 07:36:51;;;;;;;27.57;17.70;;;;;;;;;;5054917;28;20482;-65
2022/03/13 07:39:18;;;;;;;32.23;18.83;;;;;;;;;;5054976;28;20399;-70
2022/03/13 07:41:44;;;;;;;29.80;17.67;;;;;;;;;;5054976;28;20508;-71
2022/03/13 07:44:10;;;;;;;30.73;18.40;;;;;;;;;;5054950;28;20876;-62
2022/03/13 07:46:36;;;;;;;27.83;17.50;;;;;;;;;;5054841;28;20465;-70
2022/03/13 07:49:02;;;;;;;29.73;17.23;;;;;;;;;;5054814;28;20513;-63
2022/03/13 07:51:29;;;;;;;27.17;17.20;;;;;;;;;;5054812;28;20481;-73
2022/03/13 07:53:55;;;;;;;26.33;16.03;;;;;;;;;;5054809;28;20435;-72
2022/03/13 07:56:23;;;;;;;27.10;16.60;;;;;;;;;;5054704;28;20496;-76
2022/03/13 07:58:49;;;;;;;26.47;16.10;;;;;;;;;;5054024;28;20901;-74
2022/03/13 08:01:15;;;;;;;28.97;16.77;;;;;;;;;;5054594;28;20414;-77
2022/03/13 08:03:44;;;;;;;28.90;16.80;;;;;;;;;;5054407;28;20406;-73
2022/03/13 08:06:10;;;;;;;26.50;16.73;;;;;;;;;;5054479;28;20434;-75
2022/03/13 08:08:36;;;;;;;25.57;16.13;;;;;;;;;;5054403;28;20900;-75
2022/03/13 08:11:02;;;;;;;27.97;15.87;;;;;;;;;;5054326;28;20473;-75
2022/03/13 08:13:30;;;;;;;28.23;16.47;;;;;;;;;;5054242;28;20932;-76
2022/03/13 08:15:56;;;;;;;26.77;16.70;;;;;;;;;;5054343;28;20865;-76
2022/03/13 08:18:22;;;;;;;27.00;16.43;;;;;;;;;;5054168;28;20429;-76
2022/03/13 08:20:48;;;;;;;28.10;16.30;;;;;;;;;;5054108;28;20485;-71
2022/03/13 08:23:14;;;;;;;25.90;16.10;;;;;;;;;;5054293;28;20501;-75
2022/03/13 08:25:40;;;;;;;20.20;14.47;;;;;;;;;;5054096;28;20505;-76
2022/03/13 08:28:06;;;;;;;26.27;16.07;;;;;;;;;;5053976;28;20417;-76
2022/03/13 08:30:36;;;;;;;27.87;15.67;;;;;;;;;;5053821;28;20472;-75
2022/03/13 08:33:02;;;;;;;25.23;16.40;;;;;;;;;;5053815;28;20885;-62
2022/03/13 08:35:29;;;;;;;25.23;15.53;;;;;;;;;;5053984;28;20471;-62
2022/03/13 08:37:55;;;;;;;30.70;18.20;;;;;;;;;;5053778;28;20463;-63
2022/03/13 08:40:25;;;;;;;28.43;18.23;;;;;;;;;;5053778;28;20422;-62
2022/03/13 08:42:51;;;;;;;23.70;16.37;;;;;;;;;;5053812;28;20394;-62
2022/03/13 08:45:17;;;;;;;27.90;17.83;;;;;;;;;;5053641;28;20506;-63
2022/03/13 08:47:43;;;;;;;29.53;17.43;;;;;;;;;;5052475;28;20857;-62
2022/03/13 08:50:10;;;;;;;27.87;16.97;;;;;;;;;;5053412;28;20484;-62
2022/03/13 08:52:36;;;;;;;26.57;16.53;;;;;;;;;;5053584;28;20557;-63
2022/03/13 08:55:03;;;;;;;24.63;16.20;;;;;;;;;;5053473;28;20489;-63
2022/03/13 08:57:29;;;;;;;32.13;17.57;;;;;;;;;;5053441;28;20418;-63
2022/03/13 08:59:56;;;;;;;27.67;17.23;;;;;;;;;;5053497;28;20484;-63
2022/03/13 09:02:22;;;;;;;27.00;16.53;;;;;;;;;;5053340;28;20410;-63
2022/03/13 09:04:48;;;;;;;25.90;16.63;;;;;;;;;;5053100;28;20882;-62
2022/03/13 09:07:15;;;;;;;26.90;17.10;;;;;;;;;;5053352;28;20913;-62
2022/03/13 09:09:41;;;;;;;26.30;17.27;;;;;;;;;;5052302;28;20454;-62
2022/03/13 09:12:08;;;;;;;26.03;16.30;;;;;;;;;;5053102;28;20406;-63
2022/03/13 09:14:39;;;;;;;26.33;16.07;;;;;;;;;;5053177;28;20420;-63
2022/03/13 09:17:05;;;;;;;22.97;15.43;;;;;;;;;;5053299;28;20460;-64
2022/03/13 09:19:31;;;;;;;26.07;16.63;;;;;;;;;;5053060;28;20460;-62
2022/03/13 09:21:57;;;;;;;26.60;16.63;;;;;;;;;;5051778;28;20461;-62
2022/03/13 09:24:23;;;;;;;26.67;18.00;;;;;;;;;;5053131;28;20517;-64
2022/03/13 09:26:49;;;;;;;28.57;17.07;;;;;;;;;;5052918;28;20401;-62
2022/03/13 09:29:15;;;;;;;26.73;16.83;;;;;;;;;;5053025;28;20459;-62
2022/03/13 09:31:41;;;;;;;26.10;17.83;;;;;;;;;;5052981;28;20563;-62
2022/03/13 09:34:07;;;;;;;25.10;16.33;;;;;;;;;;5052929;28;20405;-62
2022/03/13 09:36:37;;;;;;;27.43;17.00;;;;;;;;;;5053033;28;20416;-62
2022/03/13 09:39:07;;;;;;;29.27;16.90;;;;;;;;;;5051730;28;20417;-63
2022/03/13 09:41:33;;;;;;;25.50;16.33;;;;;;;;;;5053021;28;20414;-63
2022/03/13 09:43:59;;;;;;;27.40;17.40;;;;;;;;;;5052962;28;20413;-62
2022/03/13 09:46:25;;;;;;;27.30;18.63;;;;;;;;;;5052900;28;20409;-62
2022/03/13 09:48:54;;;;;;;27.13;17.73;;;;;;;;;;5052666;28;20429;-63
2022/03/13 09:51:20;;;;;;;37.07;18.70;;;;;;;;;;5052739;28;20480;-62
2022/03/13 09:53:46;;;;;;;25.07;17.30;;;;;;;;;;5052865;28;20409;-62
2022/03/13 09:56:13;;;;;;;30.63;17.37;;;;;;;;;;5052704;28;20397;-62
2022/03/13 09:58:40;;;;;;;29.37;17.50;;;;;;;;;;5052677;28;20436;-62
2022/03/13 10:01:08;;;;;;;25.60;16.50;;;;;;;;;;5052679;28;20390;-62
2022/03/13 10:03:34;;;;;;;26.20;17.20;;;;;;;;;;5052720;28;20500;-62
2022/03/13 10:06:00;;;;;;;30.13;17.20;;;;;;;;;;5052474;28;20467;-63
2022/03/13 10:08:30;;;;;;;25.57;17.50;;;;;;;;;;5052703;28;20573;-63
2022/03/13 10:10:56;;;;;;;24.67;15.83;;;;;;;;;;5052493;28;20465;-63
2022/03/13 10:13:39;;;;;;;26.30;16.83;;;;;;;;;;5052534;28;20475;-63
2022/03/13 10:16:06;;;;;;;22.10;15.60;;;;;;;;;;5052633;28;20397;-62
2022/03/13 10:18:33;;;;;;;31.47;17.93;;;;;;;;;;5051221;28;20517;-62
2022/03/13 10:21:06;;;;;;;27.80;17.80;;;;;;;;;;5052824;28;20429;-63
2022/03/13 10:23:32;;;;;;;23.60;16.07;;;;;;;;;;5056362;28;20421;-63
2022/03/13 10:25:58;;;;;;;27.30;17.23;;;;;;;;;;5056213;28;20393;-62
2022/03/13 10:28:30;;;;;;;28.20;16.93;;;;;;;;;;5054960;28;20429;-63
2022/03/13 10:30:59;;;;;;;26.07;17.27;;;;;;;;;;5056086;28;20469;-63
2022/03/13 10:33:26;;;;;;;24.37;15.83;;;;;;;;;;5056133;28;20397;-63
2022/03/13 10:36:06;;;;;;;25.73;17.47;;;;;;;;;;5054916;28;20456;-64
2022/03/13 10:38:34;;;;;;;27.83;18.17;;;;;;;;;;5056202;28;20461;-62
2022/03/13 10:41:01;;;;;;;24.67;17.63;;;;;;;;;;5056025;28;20427;-62
2022/03/13 10:43:29;;;;;;;26.00;16.90;;;;;;;;;;5056053;28;20795;-62
2022/03/13 10:45:56;;;;;;;29.47;18.03;;;;;;;;;;5055919;28;20418;-63
2022/03/13 10:48:28;;;;;;;26.17;17.80;;;;;;;;;;5055914;28;20434;-64
2022/03/13 10:50:58;;;;;;;27.83;18.27;;;;;;;;;;5055697;28;20480;-64
2022/03/13 10:53:25;;;;;;;26.63;17.67;;;;;;;;;;5055778;28;20424;-62
2022/03/13 10:56:00;;;;;;;27.00;17.87;;;;;;;;;;5055880;28;20417;-62
2022/03/13 10:58:35;;;;;;;25.20;17.20;;;;;;;;;;5055771;28;20815;-63
2022/03/13 11:01:04;;;;;;;25.50;17.17;;;;;;;;;;5055728;28;20413;-65
2022/03/13 11:03:30;;;;;;;28.47;18.03;;;;;;;;;;5054377;28;20413;-65
2022/03/13 11:05:56;;;;;;;28.23;17.43;;;;;;;;;;5055486;28;20465;-66
2022/03/13 11:08:24;;;;;;;27.73;18.30;;;;;;;;;;5055615;28;20434;-63
2022/03/13 11:10:50;;;;;;;28.57;18.53;;;;;;;;;;5055483;28;20504;-65
2022/03/13 11:13:16;;;;;;;28.00;17.60;;;;;;;;;;5055632;28;20424;-64
2022/03/13 11:15:45;;;;;;;28.67;17.53;;;;;;;;;;5055337;28;20445;-64
2022/03/13 11:18:11;;;;;;;32.03;17.60;;;;;;;;;;5055361;28;20417;-65
2022/03/13 11:20:39;;;;;;;28.40;17.73;;;;;;;;;;5055427;28;20402;-64
2022/03/13 11:23:08;;;;;;;29.70;18.67;;;;;;;;;;5055217;28;20897;-68
2022/03/13 11:25:35;;;;;;;31.00;18.70;;;;;;;;;;5055279;28;20804;-64
2022/03/13 11:28:01;;;;;;;29.70;18.30;;;;;;;;;;5053836;28;20398;-64
2022/03/13 11:30:31;;;;;;;30.77;19.03;;;;;;;;;;5055005;28;20817;-66
2022/03/13 11:32:59;;;;;;;34.20;18.63;;;;;;;;;;5054002;28;20413;-64
2022/03/13 11:35:27;;;;;;;32.90;18.13;;;;;;;;;;5055173;28;20754;-64
2022/03/13 11:37:53;;;;;;;32.20;19.73;;;;;;;;;;5054896;28;20402;-66
2022/03/13 11:40:21;;;;;;;31.43;19.67;;;;;;;;;;5055126;28;20462;-65
2022/03/13 11:42:50;;;;;;;31.13;19.20;;;;;;;;;;5055102;28;20413;-64
2022/03/13 11:45:30;;;;;;;31.37;19.20;;;;;;;;;;5054970;28;20418;-64
2022/03/13 11:48:19;;;;;;;30.00;17.47;;;;;;;;;;5054701;28;20401;-65
2022/03/13 11:51:03;;;;;;;33.07;19.57;;;;;;;;;;5054515;28;20570;-64
2022/03/13 11:53:44;;;;;;;30.30;18.63;;;;;;;;;;5054707;28;20402;-64
2022/03/13 11:56:10;;;;;;;33.40;18.03;;;;;;;;;;5054738;28;20880;-64
2022/03/13 11:58:43;;;;;;;32.90;19.03;;;;;;;;;;5054708;28;20416;-63
2022/03/13 12:01:20;;;;;;;29.10;17.80;;;;;;;;;;5054660;28;20405;-65
2022/03/13 12:04:04;;;;;;;30.97;19.20;;;;;;;;;;5054312;28;20436;-64
2022/03/13 12:06:42;;;;;;;30.90;18.80;;;;;;;;;;5054482;28;20412;-63
2022/03/13 12:09:15;;;;;;;26.23;16.90;;;;;;;;;;5054358;28;20783;-64
2022/03/13 12:11:42;;;;;;;29.93;17.27;;;;;;;;;;5054229;28;20468;-64
2022/03/13 12:14:12;;;;;;;28.53;18.30;;;;;;;;;;5054438;28;20412;-66
2022/03/13 12:16:40;;;;;;;31.03;17.90;;;;;;;;;;5054374;28;20877;-64
2022/03/13 12:19:07;;;;;;;27.37;16.60;;;;;;;;;;5054253;28;20429;-63
2022/03/13 12:21:33;;;;;;;29.40;16.33;;;;;;;;;;5054258;28;20394;-64
2022/03/13 12:24:32;;;;;;;35.43;17.80;;;;;;;;;;5054125;28;20409;-64
2022/03/13 12:27:01;;;;;;;28.00;17.13;;;;;;;;;;5048747;28;20762;-63
2022/03/13 12:29:28;;;;;;;29.23;20.07;;;;;;;;;;5053939;28;20493;-65
2022/03/13 12:31:54;;;;;;;32.50;18.87;;;;;;;;;;5054050;28;20978;-65
2022/03/13 12:34:30;;;;;;;27.37;18.13;;;;;;;;;;5054040;28;20751;-63
2022/03/13 12:37:06;;;;;;;30.47;17.93;;;;;;;;;;5053845;28;20405;-64
2022/03/13 12:39:32;;;;;;;28.10;17.57;;;;;;;;;;5054013;28;20404;-64
2022/03/13 12:41:59;;;;;;;28.00;18.13;;;;;;;;;;5053861;28;20502;-64
2022/03/13 12:44:27;;;;;;;28.60;18.10;;;;;;;;;;5053639;28;20925;-62
2022/03/13 12:46:53;;;;;;;30.70;17.63;;;;;;;;;;5053604;28;20409;-64
2022/03/13 12:49:27;;;;;;;29.83;18.90;;;;;;;;;;5052269;28;20936;-65
2022/03/13 12:51:53;;;;;;;28.57;17.83;;;;;;;;;;5053801;28;20465;-63
2022/03/13 12:54:21;;;;;;;30.47;18.97;;;;;;;;;;5053498;28;20412;-64
2022/03/13 12:56:52;;;;;;;28.97;17.97;;;;;;;;;;5053490;28;20483;-64
2022/03/13 12:59:29;;;;;;;33.03;18.60;;;;;;;;;;5053583;28;20904;-64
2022/03/13 13:02:02;;;;;;;30.13;17.60;;;;;;;;;;5053629;28;20401;-64
2022/03/13 13:04:28;;;;;;;25.67;16.67;;;;;;;;;;5053300;28;20461;-63
2022/03/13 13:06:54;;;;;;;27.50;17.63;;;;;;;;;;5053458;28;20424;-64
2022/03/13 13:09:28;;;;;;;25.40;16.90;;;;;;;;;;5053250;28;20417;-63
2022/03/13 13:11:54;;;;;;;30.80;19.17;;;;;;;;;;5053379;28;20469;-65
2022/03/13 13:14:28;;;;;;;27.83;16.97;;;;;;;;;;5053345;28;20430;-63
2022/03/13 13:16:54;;;;;;;32.57;18.07;;;;;;;;;;5053345;28;20875;-64
2022/03/13 13:19:21;;;;;;;25.53;16.90;;;;;;;;;;5053199;28;20429;-63
2022/03/13 13:21:57;;;;;;;28.97;18.87;;;;;;;;;;5053253;28;20417;-63
2022/03/13 13:24:27;;;;;;;30.20;17.13;;;;;;;;;;5053325;28;20405;-64
2022/03/13 13:26:53;;;;;;;27.10;16.17;;;;;;;;;;5053142;28;20405;-64
2022/03/13 13:29:38;;;;;;;29.40;19.23;;;;;;;;;;5053097;28;20905;-64
2022/03/13 13:32:24;;;;;;;30.40;17.60;;;;;;;;;;5053096;28;20429;-64
2022/03/13 13:35:00;;;;;;;26.60;17.27;;;;;;;;;;5053062;28;20783;-65
2022/03/13 13:37:26;;;;;;;27.00;16.40;;;;;;;;;;5053168;28;20409;-64
2022/03/13 13:40:21;;;;;;;29.53;17.90;;;;;;;;;;5053073;28;20417;-64
2022/03/13 13:43:09;;;;;;;30.00;17.63;;;;;;;;;;5047352;28;20422;-64
2022/03/13 13:45:36;;;;;;;26.63;17.77;;;;;;;;;;5052848;28;20410;-64
2022/03/13 13:48:17;;;;;;;28.83;17.40;;;;;;;;;;5052831;28;20433;-65
2022/03/13 13:50:44;;;;;;;26.63;17.37;;;;;;;;;;5052860;28;20999;-72
2022/03/13 13:53:10;;;;;;;24.53;17.17;;;;;;;;;;5051630;28;20439;-68
2022/03/13 13:55:37;;;;;;;25.47;17.53;;;;;;;;;;5052806;28;20417;-70
2022/03/13 13:58:18;;;;;;;29.17;17.10;;;;;;;;;;5056675;28;20437;-73
2022/03/13 14:00:47;;;;;;;25.77;17.50;;;;;;;;;;5056918;28;20492;-67
2022/03/13 14:03:13;;;;;;;29.40;17.87;;;;;;;;;;5056807;28;20877;-65
2022/03/13 14:05:39;;;;;;;28.50;17.70;;;;;;;;;;5055211;28;20487;-68
2022/03/13 14:08:06;;;;;;;29.13;17.27;;;;;;;;;;5056677;28;20501;-64
2022/03/13 14:10:32;;;;;;;27.43;17.00;;;;;;;;;;5056345;28;20931;-63
2022/03/13 14:12:58;;;;;;;23.93;16.10;;;;;;;;;;5055339;28;20962;-63
2022/03/13 14:15:24;;;;;;;26.03;17.23;;;;;;;;;;5056636;28;20425;-64
2022/03/13 14:17:50;;;;;;;23.50;16.30;;;;;;;;;;5056479;28;20908;-64
2022/03/13 14:20:16;;;;;;;26.53;16.53;;;;;;;;;;5056614;28;20768;-67